Time;durP1;ratioP1;P1;durP2;ratioP2;P2;SDS_P1;SDS_P2;PMS_P1;PMS_P2;Temp;Humidity;BMP_temperature;BMP_pressure;BME280_temperature;BME280_humidity;BME280_pressure;Samples;Min_cycle;Max_cycle;Signal;HPM_P1;HPM_P2
2022/12/26 08:55:07;;;;;;;;;;;;;;;25.21;52.29;97869.08;631797;223;41028;-75
2022/12/26 08:57:35;;;;;;;;;;;;;;;25.22;51.37;97867.19;630428;224;64741;-76
2022/12/26 09:00:03;;;;;;;;;;;;;;;25.23;50.92;97856.12;630268;225;64795;-73
2022/12/26 09:02:31;;;;;;;;;;;;;;;25.24;50.06;97859.65;630167;225;62986;-74
2022/12/26 09:04:58;;;;;;;;;;;;;;;25.23;50.64;97856.12;630177;225;64825;-73
2022/12/26 09:07:26;;;;;;;;;;;;;;;25.25;51.82;97859.36;630227;225;64774;-74
2022/12/26 09:09:53;;;;;;;;;;;;;;;25.24;51.93;97859.65;630256;225;62721;-72
2022/12/26 09:12:21;;;;;;;;;;;;;;;25.26;49.13;97865.53;630184;225;67803;-73
2022/12/26 09:14:49;;;;;;;;;;;;;;;25.26;49.76;97854.77;630289;225;66964;-73
2022/12/26 09:17:16;;;;;;;;;;;;;;;25.27;52.17;97853.70;630197;225;64945;-72
2022/12/26 09:19:44;;;;;;;;;;;;;;;25.29;52.80;97853.41;630154;225;65732;-74
2022/12/26 09:24:57;;;;;;;;;;;;;;;25.30;51.25;97845.08;630173;225;62855;-76
2022/12/26 09:27:25;;;;;;;;;;;;;;;25.30;50.08;97839.70;630169;225;67069;-73
2022/12/26 09:29:52;;;;;;;;;;;;;;;25.33;50.84;97841.03;630256;225;64698;-69
2022/12/26 09:32:20;;;;;;;;;;;;;;;25.35;51.65;97841.56;630182;225;62673;-73
2022/12/26 09:34:48;;;;;;;;;;;;;;;25.33;48.16;97833.75;630030;225;64698;-70
2022/12/26 09:37:16;;;;;;;;;;;;;;;25.35;50.41;97836.98;616329;230;66883;-70
2022/12/26 09:39:43;;;;;;;;;;;;;;;25.36;52.05;97838.58;617231;230;66559;-70
2022/12/26 09:42:16;;;;;;;;;;;;;;;25.37;50.37;97829.44;620580;227;67218;-70
2022/12/26 09:44:57;;;;;;;;;;;;;;;25.39;47.03;97831.83;623325;227;67339;-71
2022/12/26 09:47:30;;;;;;;;;;;;;;;25.38;50.17;97833.72;624337;227;63721;-71
2022/12/26 09:49:59;;;;;;;;;;;;;;;25.38;48.80;97822.95;624422;227;67198;-71
2022/12/26 09:52:29;;;;;;;;;;;;;;;25.38;52.06;97817.58;624208;227;64893;-71
2022/12/26 09:54:58;;;;;;;;;;;;;;;25.38;50.69;97816.78;623317;227;62992;-69
2022/12/26 09:57:30;;;;;;;;;;;;;;;25.38;51.26;97808.70;624353;227;64957;-71
2022/12/26 09:59:58;;;;;;;;;;;;;;;25.39;49.31;97803.03;624093;227;64882;-72
2022/12/26 10:02:28;;;;;;;;;;;;;;;25.41;49.94;97800.07;624443;227;62774;-72
2022/12/26 10:04:55;;;;;;;;;;;;;;;25.42;49.90;97797.08;622892;227;64471;-73
2022/12/26 10:07:31;;;;;;;;;;;;;;;25.44;49.48;97797.61;616700;227;66864;-72
2022/12/26 10:10:01;;;;;;;;;;;;;;;25.45;49.60;97782.27;616561;227;64842;-71
2022/12/26 10:12:30;;;;;;;;;;;;;;;25.46;50.36;97779.30;617436;227;67365;-73
2022/12/26 10:15:08;;;;;;;;;;;;;;;25.47;48.94;97774.72;622947;227;67094;-73
2022/12/26 10:17:54;;;;;;;;;;;;;;;25.49;49.92;97774.45;624461;227;65268;-72
2022/12/26 10:20:25;;;;;;;;;;;;;;;25.47;51.50;97770.14;617099;230;67115;-75
2022/12/26 10:22:57;;;;;;;;;;;;;;;25.50;51.31;97765.28;617092;230;66990;-71
2022/12/26 10:25:26;;;;;;;;;;;;;;;25.50;49.56;97758.00;617038;230;62721;-73
2022/12/26 10:27:54;;;;;;;;;;;;;;;25.51;51.19;97758.80;616815;230;64746;-72
2022/12/26 10:30:24;;;;;;;;;;;;;;;25.52;50.47;97757.73;617247;230;65590;-74
2022/12/26 10:32:53;;;;;;;;;;;;;;;25.52;50.74;97755.05;617294;230;70668;-71
2022/12/26 10:35:28;;;;;;;;;;;;;;;25.52;51.49;97761.23;616952;230;66695;-74
2022/12/26 10:37:58;;;;;;;;;;;;;;;25.54;50.53;97752.88;616930;230;66856;-71
2022/12/26 10:40:27;;;;;;;;;;;;;;;25.55;49.77;97752.58;617263;230;65042;-74
2022/12/26 10:42:59;;;;;;;;;;;;;;;25.54;50.18;97744.81;616956;230;66773;-73
2022/12/26 10:45:33;;;;;;;;;;;;;;;25.56;50.38;97739.92;617259;230;67393;-73
2022/12/26 10:48:01;;;;;;;;;;;;;;;25.56;50.14;97735.34;617326;230;63037;-71
2022/12/26 10:50:30;;;;;;;;;;;;;;;25.56;49.89;97735.34;617315;230;66885;-71
2022/12/26 10:53:00;;;;;;;;;;;;;;;25.57;49.89;97731.58;617160;230;66773;-70
2022/12/26 10:55:32;;;;;;;;;;;;;;;25.58;50.83;97735.07;617300;230;65088;-72
2022/12/26 10:58:02;;;;;;;;;;;;;;;25.58;50.52;97726.99;617266;230;64665;-69
2022/12/26 11:00:29;;;;;;;;;;;;;;;25.59;51.21;97734.80;617192;230;67138;-70
2022/12/26 11:03:04;;;;;;;;;;;;;;;25.59;51.58;97731.28;617323;230;64837;-71
2022/12/26 11:05:32;;;;;;;;;;;;;;;25.60;50.24;97732.91;617295;227;67230;-71
2022/12/26 11:08:18;;;;;;;;;;;;;;;25.60;50.13;97724.83;617396;230;65614;-69
2022/12/26 11:11:03;;;;;;;;;;;;;;;25.61;50.97;97715.66;617260;230;66046;-71
2022/12/26 11:13:32;;;;;;;;;;;;;;;25.61;50.47;97719.14;617340;230;66982;-70
2022/12/26 11:15:59;;;;;;;;;;;;;;;25.61;51.06;97715.66;617261;229;64930;-70
2022/12/26 11:18:32;;;;;;;;;;;;;;;25.62;50.39;97711.89;617327;230;64855;-70
2022/12/26 11:21:02;;;;;;;;;;;;;;;25.63;50.09;97721.56;617074;230;64550;-70
2022/12/26 11:23:33;;;;;;;;;;;;;;;25.62;50.06;97707.31;616497;230;64771;-70
2022/12/26 11:26:01;;;;;;;;;;;;;;;25.63;50.82;97711.59;617225;230;65134;-72
2022/12/26 11:28:33;;;;;;;;;;;;;;;25.62;49.92;97709.20;617349;230;67394;-72
2022/12/26 11:31:02;;;;;;;;;;;;;;;25.63;50.59;97708.91;617312;230;66902;-72
2022/12/26 11:33:32;;;;;;;;;;;;;;;25.64;49.29;97709.70;617195;230;64890;-72
2022/12/26 11:36:07;;;;;;;;;;;;;;;25.64;49.47;97709.70;617273;230;67004;-72
2022/12/26 11:38:38;;;;;;;;;;;;;;;25.64;50.56;97712.39;617301;230;67043;-71
2022/12/26 11:43:57;;;;;;;;;;;;;;;25.64;48.86;97697.04;617302;230;64912;-69
2022/12/26 11:46:26;;;;;;;;;;;;;;;25.63;49.44;97695.45;617182;230;66926;-70
2022/12/26 11:48:53;;;;;;;;;;;;;;;25.64;50.39;97693.55;616466;230;62588;-72
2022/12/26 11:51:22;;;;;;;;;;;;;;;25.65;50.06;97700.56;617321;230;64849;-72
2022/12/26 11:53:50;;;;;;;;;;;;;;;25.65;49.66;97693.28;616748;230;64790;-71
2022/12/26 11:56:19;;;;;;;;;;;;;;;25.66;48.94;97688.69;617306;229;62708;-71
2022/12/26 11:58:46;;;;;;;;;;;;;;;25.65;50.08;97695.17;617050;230;64885;-72
2022/12/26 12:01:15;;;;;;;;;;;;;;;25.65;49.51;97701.35;617231;230;65646;-71
2022/12/26 12:03:47;;;;;;;;;;;;;;;25.66;49.58;97702.15;617381;230;63510;-73
2022/12/26 12:06:18;;;;;;;;;;;;;;;25.65;50.43;97701.35;617234;229;67047;-72
2022/12/26 12:08:59;;;;;;;;;;;;;;;25.65;50.80;97700.56;617216;230;66695;-71
2022/12/26 12:11:28;;;;;;;;;;;;;;;25.66;47.37;97705.64;616870;230;62733;-71
2022/12/26 12:14:00;;;;;;;;;;;;;;;25.68;49.66;97705.37;617353;230;64890;-70
2022/12/26 12:16:37;;;;;;;;;;;;;;;25.67;48.82;97714.52;617209;230;48699;-73
2022/12/26 12:19:07;;;;;;;;;;;;;;;25.68;49.58;97708.06;617342;230;64932;-71
2022/12/26 12:21:47;;;;;;;;;;;;;;;25.67;49.89;97703.74;622246;227;67055;-70
2022/12/26 12:24:23;;;;;;;;;;;;;;;25.68;47.97;97706.16;624377;227;66853;-71
2022/12/26 12:26:58;;;;;;;;;;;;;;;25.68;49.66;97708.86;624433;227;63771;-70
2022/12/26 12:29:30;;;;;;;;;;;;;;;25.68;47.77;97699.98;624406;227;64861;-70
2022/12/26 12:32:02;;;;;;;;;;;;;;;25.65;49.09;97698.66;624219;227;67162;-69
2022/12/26 12:34:37;;;;;;;;;;;;;;;25.65;47.89;97697.86;624155;227;65046;-71
2022/12/26 12:37:06;;;;;;;;;;;;;;;25.65;47.55;97692.48;624413;227;64587;-72
2022/12/26 12:39:35;;;;;;;;;;;;;;;25.64;46.47;97694.34;624403;227;64937;-71
2022/12/26 12:42:07;;;;;;;;;;;;;;;25.65;47.27;97689.79;624395;227;62729;-71
2022/12/26 12:44:55;;;;;;;;;;;;;;;25.65;47.90;97684.41;624339;227;65052;-71
2022/12/26 12:47:32;;;;;;;;;;;;;;;25.65;48.17;97681.72;624096;227;64742;-68
2022/12/26 12:50:01;;;;;;;;;;;;;;;25.64;48.28;97683.58;624166;227;65431;-70
2022/12/26 12:52:33;;;;;;;;;;;;;;;25.63;46.96;97687.38;624103;227;67254;-71
2022/12/26 12:55:02;;;;;;;;;;;;;;;25.63;48.15;97678.50;624359;227;64861;-68
2022/12/26 12:57:31;;;;;;;;;;;;;;;25.64;47.80;97688.96;624341;226;62924;-69
2022/12/26 13:00:10;;;;;;;;;;;;;;;25.63;48.02;97681.98;624314;226;64932;-70
2022/12/26 13:02:39;;;;;;;;;;;;;;;25.63;47.75;97684.67;624483;227;66966;-71
2022/12/26 13:05:19;;;;;;;;;;;;;;;25.63;46.61;97686.57;624444;227;46318;-68
2022/12/26 13:07:49;;;;;;;;;;;;;;;25.62;48.26;97684.98;624007;227;64945;-69
2022/12/26 13:10:17;;;;;;;;;;;;;;;25.62;48.93;97680.39;624286;226;64945;-69
2022/12/26 13:12:46;;;;;;;;;;;;;;;25.61;47.89;97689.53;624357;226;65451;-71
2022/12/26 13:15:30;;;;;;;;;;;;;;;25.62;47.91;97687.67;624390;227;67059;-70
2022/12/26 13:18:02;;;;;;;;;;;;;;;25.62;48.20;97696.55;624484;227;67197;-69
2022/12/26 13:20:46;;;;;;;;;;;;;;;25.62;48.96;97690.36;624443;227;63692;-69
2022/12/26 13:26:21;;;;;;;;;;;;;;;25.62;48.73;97693.05;624443;227;66811;-72
2022/12/26 13:28:53;;;;;;;;;;;;;;;25.61;47.16;97699.50;624304;226;62983;-70
2022/12/26 13:31:21;;;;;;;;;;;;;;;25.60;48.64;97696.02;624321;227;67234;-73
2022/12/26 13:33:49;;;;;;;;;;;;;;;25.60;47.96;97704.09;624433;227;64855;-71
2022/12/26 13:36:34;;;;;;;;;;;;;;;25.61;47.19;97699.50;624462;227;64791;-69
2022/12/26 13:39:03;;;;;;;;;;;;;;;25.59;49.51;97702.50;624541;227;67181;-70
2022/12/26 13:44:21;;;;;;;;;;;;;;;25.62;48.93;97715.39;624601;227;62833;-72
2022/12/26 13:46:51;;;;;;;;;;;;;;;25.63;49.04;97719.67;624636;227;67072;-72
2022/12/26 13:49:26;;;;;;;;;;;;;;;25.62;51.00;97719.97;624562;227;66804;-71
2022/12/26 13:51:55;;;;;;;;;;;;;;;25.60;50.31;97722.94;624036;227;64865;-71
2022/12/26 13:54:24;;;;;;;;;;;;;;;25.60;49.05;97731.01;624516;227;67546;-71
2022/12/26 13:56:56;;;;;;;;;;;;;;;25.60;51.13;97732.91;624558;227;66935;-72
2022/12/26 13:59:25;;;;;;;;;;;;;;;25.60;51.12;97731.01;624403;226;62709;-71
2022/12/26 14:01:57;;;;;;;;;;;;;;;25.60;49.61;97728.31;624185;226;64949;-71
2022/12/26 14:04:26;;;;;;;;;;;;;;;25.60;50.70;97732.91;623688;227;66938;-71
2022/12/26 14:07:01;;;;;;;;;;;;;;;25.61;50.79;97734.50;624072;226;64761;-71
2022/12/26 14:09:46;;;;;;;;;;;;;;;25.61;50.81;97737.19;624299;227;64701;-71
2022/12/26 14:12:16;;;;;;;;;;;;;;;25.61;50.70;97731.80;624390;227;64808;-71
2022/12/26 14:14:54;;;;;;;;;;;;;;;25.61;50.50;97742.57;624320;227;62799;-71
2022/12/26 14:17:32;;;;;;;;;;;;;;;25.60;48.56;97747.16;623748;226;67260;-70
2022/12/26 14:20:03;;;;;;;;;;;;;;;25.60;52.11;97760.62;624509;227;66840;-71
2022/12/26 14:22:42;;;;;;;;;;;;;;;25.61;51.32;97759.52;624398;226;62886;-71
2022/12/26 14:25:11;;;;;;;;;;;;;;;25.62;51.02;97754.96;623813;227;64801;-71
2022/12/26 14:27:40;;;;;;;;;;;;;;;25.62;51.19;97754.96;623873;227;66958;-71
2022/12/26 14:30:21;;;;;;;;;;;;;;;25.63;50.84;97751.17;624472;226;62768;-70
2022/12/26 14:32:56;;;;;;;;;;;;;;;25.63;51.36;97751.17;624628;227;67069;-71
2022/12/26 14:35:25;;;;;;;;;;;;;;;25.63;51.72;97757.36;624306;226;64608;-70
2022/12/26 14:37:57;;;;;;;;;;;;;;;25.64;51.96;97756.25;624359;226;64898;-71
2022/12/26 14:40:26;;;;;;;;;;;;;;;25.64;50.53;97750.88;623592;227;67378;-71
2022/12/26 14:43:10;;;;;;;;;;;;;;;25.65;50.58;97752.50;624541;225;64077;-70
2022/12/26 14:45:40;;;;;;;;;;;;;;;25.66;52.16;97745.22;624520;227;62731;-70
2022/12/26 14:48:18;;;;;;;;;;;;;;;25.67;51.23;97754.89;624596;227;66811;-70
2022/12/26 14:50:47;;;;;;;;;;;;;;;25.67;50.04;97763.80;624622;227;66979;-70
2022/12/26 14:53:28;;;;;;;;;;;;;;;25.68;52.46;97757.31;624570;227;64894;-70
2022/12/26 14:56:00;;;;;;;;;;;;;;;25.69;51.61;97763.49;624446;225;66842;-70
2022/12/26 14:58:31;;;;;;;;;;;;;;;25.69;51.55;97760.80;624558;227;46588;-70
2022/12/26 15:01:16;;;;;;;;;;;;;;;25.71;51.60;97758.63;624358;227;62699;-70
2022/12/26 15:03:49;;;;;;;;;;;;;;;25.72;50.00;97760.23;624531;227;64517;-71
2022/12/26 15:06:23;;;;;;;;;;;;;;;25.73;51.23;97769.10;624300;227;68140;-70
2022/12/26 15:08:59;;;;;;;;;;;;;;;25.73;50.77;97769.93;624238;227;42486;-71
2022/12/26 15:11:50;;;;;;;;;;;;;;;25.74;51.02;97766.14;624063;227;64624;-70
2022/12/26 15:14:32;;;;;;;;;;;;;;;25.77;51.00;97762.08;623781;227;64764;-71
2022/12/26 15:17:01;;;;;;;;;;;;;;;25.76;50.15;97755.89;624398;227;64049;-72
2022/12/26 15:19:36;;;;;;;;;;;;;;;25.78;51.85;97752.91;623469;227;65091;-71
2022/12/26 15:22:22;;;;;;;;;;;;;;;25.78;50.91;97752.91;623893;227;66909;-70
2022/12/26 15:24:51;;;;;;;;;;;;;;;25.79;51.11;97749.14;624459;227;65118;-71
2022/12/26 15:27:33;;;;;;;;;;;;;;;25.80;50.31;97751.53;623415;227;46539;-71
2022/12/26 15:30:13;;;;;;;;;;;;;;;25.80;50.14;97745.35;624212;227;66839;-71
2022/12/26 15:32:42;;;;;;;;;;;;;;;25.79;50.50;97744.55;624493;227;67380;-70
2022/12/26 15:35:14;;;;;;;;;;;;;;;25.81;51.58;97742.39;624135;227;68060;-72
2022/12/26 15:37:43;;;;;;;;;;;;;;;25.82;50.34;97749.37;624500;227;64830;-69
2022/12/26 15:40:13;;;;;;;;;;;;;;;25.83;51.20;97745.61;624157;227;66057;-69
2022/12/26 15:42:45;;;;;;;;;;;;;;;25.83;50.78;97740.22;624386;227;67074;-70
2022/12/26 15:45:14;;;;;;;;;;;;;;;25.86;50.15;97747.76;624458;227;64793;-70
2022/12/26 15:47:47;;;;;;;;;;;;;;;25.87;49.20;97751.25;624080;227;62899;-70
2022/12/26 15:50:22;;;;;;;;;;;;;;;25.87;50.41;97738.58;624453;227;65915;-71
2022/12/26 15:52:52;;;;;;;;;;;;;;;25.87;49.62;97749.34;624341;227;46913;-71
2022/12/26 15:55:22;;;;;;;;;;;;;;;25.88;49.57;97742.06;624072;227;64880;-71
2022/12/26 15:58:00;;;;;;;;;;;;;;;25.88;49.25;97752.84;624338;227;64925;-71
2022/12/26 16:00:32;;;;;;;;;;;;;;;25.88;47.22;97742.06;624532;227;66789;-71
2022/12/26 16:03:07;;;;;;;;;;;;;;;25.86;48.11;97750.45;624037;226;62474;-68
2022/12/26 16:05:42;;;;;;;;;;;;;;;25.85;49.06;97753.41;624037;227;48206;-71
2022/12/26 16:08:25;;;;;;;;;;;;;;;25.85;49.33;97751.52;623958;227;48361;-68
2022/12/26 16:11:09;;;;;;;;;;;;;;;25.85;48.65;97743.44;624340;227;63880;-69
2022/12/26 16:13:38;;;;;;;;;;;;;;;25.85;48.91;97738.05;616784;230;64673;-70
2022/12/26 16:16:05;;;;;;;;;;;;;;;25.85;49.12;97748.83;621505;227;65767;-70
2022/12/26 16:18:33;;;;;;;;;;;;;;;25.87;49.05;97748.55;624399;227;64932;-70
2022/12/26 16:23:48;;;;;;;;;;;;;;;25.88;49.05;97759.02;624516;227;68450;-69
2022/12/26 16:26:20;;;;;;;;;;;;;;;25.88;47.83;97767.10;624598;227;62739;-71
2022/12/26 16:28:48;;;;;;;;;;;;;;;25.91;48.86;97760.34;624349;227;67518;-71
2022/12/26 16:31:17;;;;;;;;;;;;;;;25.91;48.99;97768.42;624522;227;66822;-71
2022/12/26 16:33:44;;;;;;;;;;;;;;;25.93;46.97;97762.77;624461;227;64877;-71
2022/12/26 16:36:13;;;;;;;;;;;;;;;25.92;46.56;97761.97;624510;227;67638;-71
2022/12/26 16:38:40;;;;;;;;;;;;;;;25.92;47.83;97745.81;624490;226;66851;-71
2022/12/26 16:41:21;;;;;;;;;;;;;;;25.93;48.74;97749.30;624585;227;64649;-71
2022/12/26 16:43:50;;;;;;;;;;;;;;;25.93;49.00;97741.22;624478;227;67411;-71
2022/12/26 16:46:19;;;;;;;;;;;;;;;25.93;49.35;97747.41;624536;227;65062;-71
2022/12/26 16:48:48;;;;;;;;;;;;;;;25.93;49.04;97757.38;624511;227;64969;-71
2022/12/26 16:51:32;;;;;;;;;;;;;;;25.94;47.81;97753.59;624332;226;67027;-71
2022/12/26 16:54:17;;;;;;;;;;;;;;;25.95;47.09;97747.13;624386;227;66937;-71
2022/12/26 16:56:59;;;;;;;;;;;;;;;25.96;48.22;97738.75;624524;227;65111;-71
2022/12/26 16:59:28;;;;;;;;;;;;;;;25.96;48.65;97735.27;619555;227;64886;-71
2022/12/26 17:01:56;;;;;;;;;;;;;;;25.97;48.22;97742.24;624489;226;64822;-71
2022/12/26 17:04:25;;;;;;;;;;;;;;;25.95;50.18;97737.16;624504;227;63020;-71
2022/12/26 17:06:54;;;;;;;;;;;;;;;25.95;49.05;97752.52;624508;227;65089;-71
2022/12/26 17:09:22;;;;;;;;;;;;;;;25.95;47.17;97750.63;624520;227;67001;-71
2022/12/26 17:11:54;;;;;;;;;;;;;;;25.96;47.94;97749.52;624544;227;64865;-71
2022/12/26 17:14:23;;;;;;;;;;;;;;;25.97;48.00;97753.81;624530;227;65078;-70
2022/12/26 17:16:57;;;;;;;;;;;;;;;25.98;48.60;97754.64;624562;227;64507;-69
2022/12/26 17:19:30;;;;;;;;;;;;;;;25.98;49.04;97762.72;624456;227;62834;-71
2022/12/26 17:22:11;;;;;;;;;;;;;;;25.98;48.59;97754.64;624513;227;64841;-71
2022/12/26 17:24:42;;;;;;;;;;;;;;;25.98;48.66;97757.33;624168;226;67187;-71
2022/12/26 17:27:16;;;;;;;;;;;;;;;25.98;47.43;97754.64;624384;226;65228;-71
2022/12/26 17:29:54;;;;;;;;;;;;;;;25.98;47.79;97768.90;624542;227;66930;-71
2022/12/26 17:32:27;;;;;;;;;;;;;;;25.99;47.58;97753.54;624500;225;66933;-70
2022/12/26 17:34:54;;;;;;;;;;;;;;;25.99;48.77;97750.84;624540;227;65211;-70
2022/12/26 17:37:25;;;;;;;;;;;;;;;25.98;48.40;97751.95;624549;227;67044;-71
2022/12/26 17:39:54;;;;;;;;;;;;;;;26.00;48.80;97749.74;624516;227;67792;-72
2022/12/26 17:42:22;;;;;;;;;;;;;;;26.00;48.03;97750.57;624507;227;65004;-73
2022/12/26 17:44:49;;;;;;;;;;;;;;;26.01;48.20;97748.67;624448;227;66626;-72
2022/12/26 17:50:05;;;;;;;;;;;;;;;26.02;48.10;97747.58;595658;237;37681;-71
2022/12/26 17:52:34;;;;;;;;;;;;;;;26.02;48.86;97742.19;595804;237;67252;-71
2022/12/26 17:55:02;;;;;;;;;;;;;;;26.03;47.04;97738.42;595508;237;66996;-71
2022/12/26 17:57:30;;;;;;;;;;;;;;;26.04;48.53;97730.05;595671;237;63013;-72
2022/12/26 17:59:59;;;;;;;;;;;;;;;26.03;48.23;97733.04;596047;237;67192;-72
2022/12/26 18:02:27;;;;;;;;;;;;;;;26.03;48.08;97728.45;595757;237;66871;-72
2022/12/26 18:04:54;;;;;;;;;;;;;;;26.05;49.14;97725.45;595598;237;64891;-72
2022/12/26 18:07:26;;;;;;;;;;;;;;;26.04;48.36;97730.05;595769;237;64941;-71
2022/12/26 18:09:53;;;;;;;;;;;;;;;26.06;48.71;97727.88;595822;237;66928;-71
2022/12/26 18:12:21;;;;;;;;;;;;;;;26.08;47.36;97719.48;595601;237;62852;-72
2022/12/26 18:14:48;;;;;;;;;;;;;;;26.08;47.64;97720.31;595732;237;64955;-71
2022/12/26 18:17:19;;;;;;;;;;;;;;;26.10;46.83;97723.50;595755;237;64719;-71
2022/12/26 18:19:48;;;;;;;;;;;;;;;26.10;47.56;97715.42;595856;237;65281;-71
2022/12/26 18:22:17;;;;;;;;;;;;;;;26.12;48.26;97715.94;595983;237;67178;-72
2022/12/26 18:24:44;;;;;;;;;;;;;;;26.14;47.80;97715.67;595983;237;66933;-71
2022/12/26 18:27:19;;;;;;;;;;;;;;;26.14;48.76;97707.59;595981;237;64878;-72
2022/12/26 18:29:48;;;;;;;;;;;;;;;26.16;47.95;97704.59;595579;237;67147;-72
2022/12/26 18:32:17;;;;;;;;;;;;;;;26.17;47.46;97692.74;595952;237;64704;-73
2022/12/26 18:34:47;;;;;;;;;;;;;;;26.19;47.92;97694.06;595614;235;62806;-73
2022/12/26 18:37:14;;;;;;;;;;;;;;;26.20;47.13;97687.56;595767;237;65029;-72
2022/12/26 18:39:42;;;;;;;;;;;;;;;26.21;46.84;97691.06;595710;237;65124;-72
2022/12/26 18:42:11;;;;;;;;;;;;;;;26.22;47.86;97681.88;596008;237;62729;-72
2022/12/26 18:44:41;;;;;;;;;;;;;;;26.24;49.06;97691.27;595932;234;67110;-72
2022/12/26 18:47:13;;;;;;;;;;;;;;;26.25;48.26;97690.20;595993;237;67085;-72
2022/12/26 18:49:41;;;;;;;;;;;;;;;26.27;49.34;97685.34;598181;235;62911;-72
2022/12/26 18:52:09;;;;;;;;;;;;;;;26.28;46.95;97691.52;599315;236;64775;-73
2022/12/26 18:54:36;;;;;;;;;;;;;;;26.29;47.42;97685.82;599021;236;67606;-72
2022/12/26 18:57:05;;;;;;;;;;;;;;;26.30;47.27;97690.14;599004;236;64953;-73
2022/12/26 18:59:33;;;;;;;;;;;;;;;26.32;47.10;97682.55;598955;236;67588;-73
2022/12/26 19:02:01;;;;;;;;;;;;;;;26.33;47.27;97686.86;598838;236;64638;-73
2022/12/26 19:04:28;;;;;;;;;;;;;;;26.35;47.05;97686.55;599562;236;64963;-72
2022/12/26 19:06:55;;;;;;;;;;;;;;;26.35;47.70;97690.08;598921;236;65026;-72
2022/12/26 19:09:23;;;;;;;;;;;;;;;26.39;46.01;97682.20;599095;236;66752;-72
2022/12/26 19:11:52;;;;;;;;;;;;;;;26.39;48.48;97676.81;598571;236;64946;-72
2022/12/26 19:14:21;;;;;;;;;;;;;;;26.40;46.89;97673.02;599102;236;67706;-72
2022/12/26 19:16:48;;;;;;;;;;;;;;;26.41;46.56;97684.59;599542;236;66784;-72
2022/12/26 19:19:16;;;;;;;;;;;;;;;26.44;46.06;97673.26;599273;236;64720;-72
2022/12/26 19:21:43;;;;;;;;;;;;;;;26.44;45.84;97681.34;599266;236;64876;-73
2022/12/26 19:24:11;;;;;;;;;;;;;;;26.46;45.63;97681.83;599082;236;66880;-73
2022/12/26 19:26:38;;;;;;;;;;;;;;;26.46;45.66;97671.84;599097;236;62763;-72
2022/12/26 19:29:06;;;;;;;;;;;;;;;26.47;47.31;97675.37;599272;236;67210;-73
2022/12/26 19:31:34;;;;;;;;;;;;;;;26.49;46.71;97675.86;599256;236;66880;-73
2022/12/26 19:34:01;;;;;;;;;;;;;;;26.50;47.55;97680.17;597589;236;62670;-73
2022/12/26 19:36:29;;;;;;;;;;;;;;;26.50;47.16;97682.88;598193;236;64923;-73
2022/12/26 19:38:56;;;;;;;;;;;;;;;26.52;47.33;97686.11;598175;236;64884;-73
2022/12/26 19:41:24;;;;;;;;;;;;;;;26.52;47.84;97681.52;598739;236;64940;-73
2022/12/26 19:43:58;;;;;;;;;;;;;;;26.54;44.84;97681.21;599109;236;67383;-73
2022/12/26 19:46:26;;;;;;;;;;;;;;;26.56;47.77;97681.73;599458;236;66558;-71
2022/12/26 19:48:54;;;;;;;;;;;;;;;26.56;45.58;97676.34;599836;235;66088;-71
2022/12/26 19:51:22;;;;;;;;;;;;;;;26.56;46.61;97681.73;600772;236;67198;-70
2022/12/26 19:53:50;;;;;;;;;;;;;;;26.57;46.27;97680.62;600756;236;67470;-70
2022/12/26 19:56:19;;;;;;;;;;;;;;;26.59;47.11;97683.05;600796;236;64794;-70
2022/12/26 19:58:47;;;;;;;;;;;;;;;26.58;48.25;97690.33;600774;236;64859;-71
2022/12/26 20:01:16;;;;;;;;;;;;;;;26.61;47.70;97686.26;600784;236;64991;-70
2022/12/26 20:03:44;;;;;;;;;;;;;;;26.60;46.15;97679.24;600751;236;62783;-71
2022/12/26 20:06:13;;;;;;;;;;;;;;;26.60;46.13;97682.77;600767;236;64963;-70
2022/12/26 20:08:41;;;;;;;;;;;;;;;26.61;47.19;97678.17;600789;236;64910;-70
2022/12/26 20:11:12;;;;;;;;;;;;;;;26.63;48.12;97686.74;600798;236;62779;-70
2022/12/26 20:13:40;;;;;;;;;;;;;;;26.63;45.25;97690.27;600795;236;66672;-71
2022/12/26 20:16:09;;;;;;;;;;;;;;;26.61;46.51;97676.27;600798;236;66879;-70
2022/12/26 20:18:37;;;;;;;;;;;;;;;26.63;45.80;97678.66;600730;236;62766;-70
2022/12/26 20:21:05;;;;;;;;;;;;;;;26.64;45.85;97672.98;600792;236;67310;-70
2022/12/26 20:23:33;;;;;;;;;;;;;;;26.64;47.46;97689.16;600788;236;66928;-71
2022/12/26 20:26:02;;;;;;;;;;;;;;;26.64;45.17;97683.77;600799;236;65009;-70
2022/12/26 20:28:29;;;;;;;;;;;;;;;26.64;46.41;97683.77;600774;236;65290;-71
2022/12/26 20:30:59;;;;;;;;;;;;;;;26.66;47.31;97683.49;600748;236;64664;-71
2022/12/26 20:33:26;;;;;;;;;;;;;;;26.66;46.26;97675.41;600326;235;62850;-70
2022/12/26 20:36:01;;;;;;;;;;;;;;;26.66;46.08;97684.28;600837;236;64862;-71
2022/12/26 20:38:28;;;;;;;;;;;;;;;26.66;46.18;97675.41;600748;236;67959;-71
2022/12/26 20:40:56;;;;;;;;;;;;;;;26.65;47.27;97679.17;600756;236;64961;-71
2022/12/26 20:43:24;;;;;;;;;;;;;;;26.65;46.85;97674.58;600755;236;67289;-71
2022/12/26 20:45:52;;;;;;;;;;;;;;;26.65;46.44;97674.58;600755;236;67789;-71
2022/12/26 20:48:20;;;;;;;;;;;;;;;26.65;47.14;97669.19;599517;236;62999;-71
2022/12/26 20:51:01;;;;;;;;;;;;;;;26.65;45.23;97673.78;595639;238;64872;-71
2022/12/26 20:53:29;;;;;;;;;;;;;;;26.65;46.62;97671.88;595611;236;66870;-71
2022/12/26 20:55:57;;;;;;;;;;;;;;;26.64;46.53;97667.59;595563;238;64948;-71
2022/12/26 20:58:26;;;;;;;;;;;;;;;26.65;46.58;97676.48;595622;238;67020;-71
2022/12/26 21:00:57;;;;;;;;;;;;;;;26.64;46.15;97667.59;595669;238;66898;-71
2022/12/26 21:03:25;;;;;;;;;;;;;;;26.64;45.53;97670.29;595626;238;62833;-71
2022/12/26 21:05:55;;;;;;;;;;;;;;;26.64;46.25;97670.29;595634;238;67120;-71
2022/12/26 21:08:22;;;;;;;;;;;;;;;26.63;45.71;97668.70;595580;238;67237;-71
2022/12/26 21:10:51;;;;;;;;;;;;;;;26.64;46.05;97672.19;595618;238;62721;-72
2022/12/26 21:13:19;;;;;;;;;;;;;;;26.65;45.78;97671.09;595657;238;67071;-73
2022/12/26 21:15:46;;;;;;;;;;;;;;;26.64;46.57;97669.49;595657;238;66815;-72
2022/12/26 21:18:14;;;;;;;;;;;;;;;26.63;46.28;97666.00;595617;238;64896;-72
2022/12/26 21:20:41;;;;;;;;;;;;;;;26.63;47.08;97651.70;595616;238;67386;-73
2022/12/26 21:23:09;;;;;;;;;;;;;;;26.62;47.56;97658.98;595633;238;66939;-73
2022/12/26 21:25:36;;;;;;;;;;;;;;;26.62;47.11;97660.89;595632;238;64871;-73
2022/12/26 21:28:04;;;;;;;;;;;;;;;26.61;45.32;97652.01;595670;238;64335;-73
2022/12/26 21:30:31;;;;;;;;;;;;;;;26.62;47.24;97653.59;595637;238;64853;-73
2022/12/26 21:32:59;;;;;;;;;;;;;;;26.61;47.29;97659.30;595589;238;64838;-73
2022/12/26 21:35:26;;;;;;;;;;;;;;;26.61;46.06;97662.79;595620;238;64804;-73
2022/12/26 21:37:54;;;;;;;;;;;;;;;26.60;47.16;97655.81;595631;238;64816;-73
2022/12/26 21:40:22;;;;;;;;;;;;;;;26.59;47.10;97659.58;595641;238;62838;-73
2022/12/26 21:42:50;;;;;;;;;;;;;;;26.58;47.39;97649.90;595654;238;67280;-73
2022/12/26 21:45:18;;;;;;;;;;;;;;;26.58;47.26;97647.20;595665;236;66963;-73
2022/12/26 21:47:46;;;;;;;;;;;;;;;26.58;46.82;97647.20;595623;238;65226;-73
2022/12/26 21:50:13;;;;;;;;;;;;;;;26.57;45.99;97645.58;595672;238;67166;-73
2022/12/26 21:52:40;;;;;;;;;;;;;;;26.58;46.73;97646.41;595669;238;64898;-73
2022/12/26 21:55:29;;;;;;;;;;;;;;;26.57;47.44;97640.19;595665;238;62748;-73
2022/12/26 21:57:58;;;;;;;;;;;;;;;26.55;47.56;97637.80;595608;238;64435;-72
2022/12/26 22:00:26;;;;;;;;;;;;;;;26.54;46.69;97630.80;595583;238;64992;-72
2022/12/26 22:05:40;;;;;;;;;;;;;;;26.53;46.96;97623.81;595664;238;67169;-72
2022/12/26 22:08:08;;;;;;;;;;;;;;;26.51;47.32;97627.89;595687;238;67172;-72
2022/12/26 22:13:23;;;;;;;;;;;;;;;26.52;47.62;97619.53;595656;238;67187;-73
2022/12/26 22:16:06;;;;;;;;;;;;;;;26.51;46.73;97609.02;595683;238;66918;-73
2022/12/26 22:18:40;;;;;;;;;;;;;;;26.50;46.93;97610.89;595637;238;65157;-73
2022/12/26 22:21:10;;;;;;;;;;;;;;;26.50;48.26;97612.80;595663;238;67091;-72
2022/12/26 22:23:38;;;;;;;;;;;;;;;26.49;47.36;97605.78;595624;238;67158;-72